createdAt,value
2019-02-20T00:00:55.853Z,76.04
2019-02-20T00:03:28.028Z,76.18
2019-02-20T00:06:01.214Z,76.50
2019-02-20T00:08:33.211Z,76.64
2019-02-20T00:11:05.195Z,76.92
2019-02-20T00:13:37.236Z,77.29
2019-02-20T00:16:09.228Z,77.17
2019-02-20T00:18:41.304Z,77.05
2019-02-20T00:21:13.343Z,77.01
2019-02-20T00:23:45.321Z,76.84
2019-02-20T00:26:17.339Z,76.88
2019-02-20T00:28:49.314Z,76.61
2019-02-20T00:31:21.276Z,76.83
2019-02-20T00:33:53.249Z,77.05
2019-02-20T00:36:25.251Z,76.82
2019-02-20T00:38:57.223Z,76.89
2019-02-20T00:41:29.259Z,76.71
2019-02-20T00:44:17.106Z,77.26
2019-02-20T00:47:05.896Z,78.11
2019-02-20T00:49:41.544Z,78.72
2019-02-20T00:52:26.300Z,78.74
2019-02-20T00:54:58.284Z,78.79
2019-02-20T00:57:30.285Z,78.52
2019-02-20T01:00:02.612Z,78.85
2019-02-20T01:02:34.614Z,79.45
2019-02-20T01:05:06.583Z,79.54
2019-02-20T01:07:38.563Z,79.53
2019-02-20T01:10:10.521Z,79.52
2019-02-20T01:12:42.514Z,79.16
2019-02-20T01:15:14.494Z,79.00
2019-02-20T01:17:46.494Z,78.85
2019-02-20T01:20:18.579Z,78.98
2019-02-20T01:22:59.432Z,78.97
2019-02-20T01:25:24.491Z,79.01
2019-02-20T01:27:56.580Z,78.02
2019-02-20T01:30:28.605Z,77.41
2019-02-20T01:33:01.702Z,76.57
2019-02-20T01:35:33.662Z,76.44
2019-02-20T01:38:05.665Z,76.71
2019-02-20T01:40:37.639Z,77.05
2019-02-20T01:43:09.648Z,77.26
2019-02-20T01:45:41.601Z,77.52
2019-02-20T01:48:13.582Z,77.95
2019-02-20T01:50:45.543Z,78.35
2019-02-20T01:53:17.607Z,78.40
2019-02-20T01:55:50.469Z,78.26
2019-02-20T01:58:22.474Z,77.55
2019-02-20T02:00:54.478Z,77.43
2019-02-20T02:03:26.451Z,77.75
2019-02-20T02:05:58.409Z,77.75
2019-02-20T02:08:30.400Z,77.51
2019-02-20T02:11:02.345Z,77.37
2019-02-20T02:13:34.329Z,77.08
2019-02-20T02:16:06.296Z,76.70
2019-02-20T02:18:39.429Z,77.03
2019-02-20T02:21:11.407Z,76.74
2019-02-20T02:23:43.401Z,76.96
2019-02-20T02:26:15.359Z,77.14
2019-02-20T02:28:47.347Z,78.02
2019-02-20T02:31:19.317Z,78.06
2019-02-20T02:33:51.304Z,78.17
2019-02-20T02:36:24.360Z,78.05
2019-02-20T02:38:56.460Z,78.11
2019-02-20T02:41:28.411Z,77.93
2019-02-20T02:44:02.223Z,77.90
2019-02-20T02:46:34.174Z,77.97
2019-02-20T02:49:06.140Z,78.08
2019-02-20T02:51:38.131Z,78.04
2019-02-20T02:54:10.102Z,77.80
2019-02-20T02:56:42.069Z,77.99
2019-02-20T03:02:53.279Z,77.82
2019-02-20T03:05:25.296Z,77.89
2019-02-20T03:07:57.284Z,78.07
2019-02-20T03:10:29.273Z,78.16
2019-02-20T03:13:01.676Z,77.80
2019-02-20T03:15:33.691Z,77.70
2019-02-20T03:18:05.677Z,77.48
2019-02-20T03:20:37.691Z,77.61
2019-02-20T03:23:09.674Z,77.30
2019-02-20T03:25:41.697Z,77.10
2019-02-20T03:28:13.653Z,77.64
2019-02-20T03:30:45.642Z,77.78
2019-02-20T03:33:17.589Z,78.25
2019-02-20T03:35:49.586Z,78.29
2019-02-20T03:38:29.930Z,78.25
2019-02-20T03:40:55.475Z,78.01
2019-02-20T03:43:27.453Z,78.23
2019-02-20T03:45:59.462Z,78.14
2019-02-20T03:48:31.460Z,77.86
2019-02-20T03:51:05.271Z,78.00
2019-02-20T03:53:37.245Z,77.98
2019-02-20T03:56:09.837Z,78.00
2019-02-20T03:58:41.819Z,77.75
2019-02-20T04:01:13.782Z,77.49
2019-02-20T04:03:45.768Z,76.87
2019-02-20T04:06:17.761Z,77.56
2019-02-20T04:08:51.552Z,78.43
2019-02-20T04:11:23.540Z,79.05
2019-02-20T04:13:55.520Z,79.23
2019-02-20T04:16:27.495Z,78.98
2019-02-20T04:18:59.501Z,78.87
2019-02-20T04:21:31.473Z,78.98
2019-02-20T04:24:05.227Z,78.95
2019-02-20T04:26:38.391Z,78.93
2019-02-20T04:29:10.397Z,78.84
2019-02-20T04:31:42.427Z,79.06
2019-02-20T04:34:14.389Z,79.06
2019-02-20T04:36:46.391Z,79.06
2019-02-20T04:39:18.375Z,79.12
2019-02-20T04:41:50.372Z,79.35
2019-02-20T04:44:22.510Z,80.05
2019-02-20T04:46:54.554Z,80.24
2019-02-20T04:49:26.559Z,80.21
2019-02-20T04:51:58.537Z,80.14
2019-02-20T04:54:30.531Z,80.39
2019-02-20T04:57:02.527Z,80.35
2019-02-20T04:59:34.508Z,80.57
2019-02-20T05:02:06.495Z,80.46
2019-02-20T05:04:38.499Z,80.25
2019-02-20T05:07:10.463Z,80.19
2019-02-20T05:09:42.484Z,80.35
2019-02-20T05:12:14.447Z,80.14
2019-02-20T05:14:46.449Z,80.09
2019-02-20T05:17:18.412Z,80.35
2019-02-20T05:19:50.405Z,80.05
2019-02-20T05:22:22.488Z,80.05
2019-02-20T05:24:54.477Z,79.91
2019-02-20T05:27:26.450Z,79.76
2019-02-20T05:29:58.474Z,79.38
2019-02-20T05:32:30.462Z,79.32
2019-02-20T05:35:04.257Z,79.19
2019-02-20T05:37:36.264Z,79.20
2019-02-20T05:40:08.301Z,79.36
2019-02-20T05:42:40.280Z,79.43
2019-02-20T05:45:12.369Z,79.00
2019-02-20T05:47:44.343Z,78.82
2019-02-20T05:50:16.339Z,78.70
2019-02-20T05:52:48.336Z,78.73
2019-02-20T05:55:20.370Z,78.72
2019-02-20T05:57:53.418Z,79.07
2019-02-20T06:00:25.411Z,79.27
2019-02-20T06:02:57.392Z,79.52
2019-02-20T06:05:29.526Z,79.12
2019-02-20T06:08:01.497Z,78.57
2019-02-20T06:10:33.507Z,78.16
2019-02-20T06:13:05.481Z,78.44
2019-02-20T06:15:37.479Z,78.52
2019-02-20T06:18:09.554Z,79.07
2019-02-20T06:20:41.585Z,78.81
2019-02-20T06:23:13.560Z,78.67
2019-02-20T06:25:45.573Z,78.76
2019-02-20T06:28:17.557Z,78.70
2019-02-20T06:30:49.548Z,79.01
2019-02-20T06:33:21.539Z,79.16
2019-02-20T06:35:53.551Z,79.09
2019-02-20T06:38:25.491Z,79.06
2019-02-20T06:40:57.633Z,78.79
2019-02-20T06:43:29.733Z,78.62
2019-02-20T06:46:02.479Z,78.67
2019-02-20T06:48:34.430Z,78.67
2019-02-20T06:51:06.434Z,79.23
2019-02-20T06:53:38.442Z,79.07
2019-02-20T06:56:10.428Z,79.15
2019-02-20T06:58:42.445Z,79.07
2019-02-20T07:01:14.419Z,79.23
2019-02-20T07:03:46.415Z,79.16
2019-02-20T07:06:45.717Z,78.83
2019-02-20T07:09:55.461Z,78.70
2019-02-20T07:12:43.595Z,78.64
2019-02-20T07:16:02.824Z,78.52
2019-02-20T07:19:12.094Z,78.40
2019-02-20T07:22:22.807Z,78.47
2019-02-20T07:25:17.125Z,78.67
2019-02-20T07:28:32.814Z,78.66
2019-02-20T07:31:04.854Z,78.34
2019-02-20T07:33:38.588Z,77.92
2019-02-20T07:36:10.562Z,77.65
2019-02-20T07:38:42.557Z,77.67
2019-02-20T07:41:14.627Z,77.58
2019-02-20T07:43:46.647Z,77.30
2019-02-20T07:46:18.692Z,77.29
2019-02-20T07:48:50.699Z,76.95
2019-02-20T07:51:22.696Z,76.77
2019-02-20T07:53:54.681Z,76.54
2019-02-20T07:56:26.704Z,76.49
2019-02-20T07:58:58.786Z,77.01
2019-02-20T08:01:30.778Z,76.75
2019-02-20T08:04:02.825Z,75.42
2019-02-20T08:06:34.784Z,73.61
2019-02-20T08:09:06.778Z,73.30
2019-02-20T08:11:38.736Z,72.78
2019-02-20T08:14:10.749Z,72.47
2019-02-20T08:16:51.802Z,72.40
2019-02-20T08:19:16.678Z,72.45
2019-02-20T08:21:48.592Z,72.24
2019-02-20T08:24:20.704Z,71.27
2019-02-20T08:26:52.718Z,70.68
2019-02-20T08:29:24.742Z,70.37
2019-02-20T08:31:56.849Z,70.34
2019-02-20T08:34:28.853Z,70.28
2019-02-20T08:37:00.878Z,71.31
2019-02-20T08:39:34.707Z,70.84
2019-02-20T08:42:06.721Z,70.15
2019-02-20T08:44:38.669Z,69.45
2019-02-20T08:47:10.726Z,68.59
2019-02-20T08:49:44.516Z,66.28
2019-02-20T08:52:16.507Z,65.67
2019-02-20T08:54:48.488Z,65.56
2019-02-20T08:57:20.501Z,65.45
2019-02-20T08:59:52.456Z,65.85
2019-02-20T09:02:24.474Z,65.29
2019-02-20T09:04:56.425Z,66.16
2019-02-20T09:07:28.476Z,66.58
2019-02-20T09:10:00.445Z,67.06
2019-02-20T09:12:32.465Z,66.17
2019-02-20T09:15:05.395Z,65.94
2019-02-20T09:17:37.373Z,65.19
2019-02-20T09:20:09.852Z,64.55
2019-02-20T09:22:41.874Z,64.67
2019-02-20T09:25:19.824Z,64.95
2019-02-20T09:27:47.768Z,64.36
2019-02-20T09:30:28.041Z,64.64
2019-02-20T09:32:53.626Z,63.81
2019-02-20T09:35:25.647Z,63.71
2019-02-20T09:37:57.655Z,63.65
2019-02-20T09:40:29.637Z,63.07
2019-02-20T09:43:01.647Z,63.24
2019-02-20T09:45:41.698Z,63.29
2019-02-20T09:48:08.012Z,62.77
2019-02-20T09:50:40.005Z,63.70
2019-02-20T09:53:12.033Z,62.95
2019-02-20T09:55:51.110Z,62.55
2019-02-20T09:58:17.950Z,62.17
2019-02-20T10:00:49.925Z,61.78
2019-02-20T10:03:21.958Z,61.48
2019-02-20T10:05:53.970Z,61.13
2019-02-20T10:08:25.982Z,61.21
2019-02-20T10:10:57.966Z,61.25
2019-02-20T10:13:30.009Z,59.89
2019-02-20T10:16:01.966Z,59.62
2019-02-20T10:18:33.944Z,60.14
2019-02-20T10:21:05.950Z,59.52
2019-02-20T10:23:37.956Z,59.79
2019-02-20T10:26:09.970Z,59.10
2019-02-20T10:28:41.960Z,58.67
2019-02-20T10:31:13.997Z,59.02
2019-02-20T10:33:45.988Z,59.38
2019-02-20T10:36:17.938Z,59.56
2019-02-20T10:38:49.929Z,59.63
2019-02-20T10:41:21.957Z,60.05
2019-02-20T10:43:53.919Z,60.37
2019-02-20T10:46:25.921Z,60.46
2019-02-20T10:48:57.928Z,60.01
2019-02-20T10:51:29.904Z,60.12
2019-02-20T10:54:01.954Z,59.34
2019-02-20T10:56:33.941Z,59.72
2019-02-20T10:59:05.926Z,58.91
2019-02-20T11:01:37.951Z,58.08
2019-02-20T11:04:09.933Z,57.24
2019-02-20T11:06:42.036Z,56.96
2019-02-20T11:09:14.031Z,57.15
2019-02-20T11:11:46.056Z,57.44
2019-02-20T11:14:18.078Z,57.42
2019-02-20T11:16:50.110Z,56.90
2019-02-20T11:19:22.114Z,56.52
2019-02-20T11:21:54.127Z,56.00
2019-02-20T11:24:26.118Z,55.66
2019-02-20T11:26:58.136Z,54.64
2019-02-20T11:29:30.138Z,54.53
2019-02-20T11:32:02.122Z,53.23
2019-02-20T11:34:34.153Z,54.51
2019-02-20T11:37:06.202Z,54.10
2019-02-20T11:39:38.211Z,53.35
2019-02-20T11:42:10.232Z,53.26
2019-02-20T11:44:42.234Z,52.69
2019-02-20T11:47:14.285Z,52.47
2019-02-20T11:49:46.349Z,52.21
2019-02-20T11:52:18.530Z,52.05
2019-02-20T11:54:50.597Z,52.46
2019-02-20T11:57:22.617Z,52.95
2019-02-20T11:59:54.604Z,53.12
2019-02-20T12:02:26.669Z,52.85
2019-02-20T12:04:58.658Z,52.22
2019-02-20T12:07:30.649Z,52.02
2019-02-20T12:10:02.750Z,51.85
2019-02-20T12:12:34.821Z,52.53
2019-02-20T12:15:06.807Z,52.00
2019-02-20T12:17:38.830Z,52.33
2019-02-20T12:20:10.815Z,51.66
2019-02-20T12:22:42.844Z,50.18
2019-02-20T12:25:14.832Z,51.26
2019-02-20T12:27:46.861Z,51.38
2019-02-20T12:30:18.863Z,51.38
2019-02-20T12:32:50.872Z,49.85
2019-02-20T12:35:22.876Z,49.96
2019-02-20T12:37:54.928Z,49.83
2019-02-20T12:40:26.965Z,50.23
2019-02-20T12:42:58.980Z,50.58
2019-02-20T12:45:50.564Z,50.57
2019-02-20T12:48:22.613Z,50.03
2019-02-20T12:50:54.625Z,50.03
2019-02-20T12:53:26.662Z,49.39
2019-02-20T12:55:58.661Z,49.78
2019-02-20T12:58:30.685Z,50.08
2019-02-20T13:03:56.309Z,49.66
2019-02-20T13:06:29.770Z,49.37
2019-02-20T13:11:45.846Z,49.47
2019-02-20T13:14:17.911Z,48.78
2019-02-20T13:16:49.905Z,49.55
2019-02-20T13:19:21.961Z,49.33
2019-02-20T13:21:53.978Z,49.24
2019-02-20T13:24:25.990Z,50.09
2019-02-20T13:26:57.984Z,50.48
2019-02-20T13:29:30.073Z,50.49
2019-02-20T13:32:02.106Z,49.96
2019-02-20T13:34:34.136Z,50.04
2019-02-20T13:37:06.140Z,49.86
2019-02-20T13:39:38.191Z,50.02
2019-02-20T13:42:10.254Z,49.96
2019-02-20T13:44:44.129Z,50.18
2019-02-20T13:47:16.135Z,50.13
2019-02-20T13:49:48.161Z,49.92
2019-02-20T13:52:20.158Z,49.99
2019-02-20T13:54:52.136Z,49.12
2019-02-20T13:57:24.421Z,49.77
2019-02-20T13:59:56.440Z,50.49
2019-02-20T14:02:28.412Z,50.46
2019-02-20T14:05:00.409Z,50.17
2019-02-20T14:07:32.413Z,49.96
2019-02-20T14:10:07.719Z,50.21
2019-02-20T14:12:39.723Z,50.18
2019-02-20T14:15:11.859Z,50.87
2019-02-20T14:17:43.861Z,50.88
2019-02-20T14:20:15.870Z,51.02
2019-02-20T14:22:47.891Z,51.08
2019-02-20T14:25:19.905Z,51.20
2019-02-20T14:27:51.934Z,50.57
2019-02-20T14:30:23.907Z,50.33
2019-02-20T14:32:55.961Z,50.42
2019-02-20T14:35:27.971Z,50.10
2019-02-20T14:38:00.101Z,50.31
2019-02-20T14:40:32.073Z,49.83
2019-02-20T14:43:04.107Z,50.10
2019-02-20T14:45:36.068Z,50.44
2019-02-20T14:48:08.292Z,50.68
2019-02-20T14:50:40.237Z,50.76
2019-02-20T14:53:12.248Z,50.58
2019-02-20T14:55:44.687Z,50.96
2019-02-20T14:58:16.740Z,50.85
2019-02-20T15:00:48.814Z,50.72
2019-02-20T15:03:20.861Z,51.25
2019-02-20T15:05:52.873Z,51.22
2019-02-20T15:08:24.923Z,51.37
2019-02-20T15:10:56.930Z,51.11
2019-02-20T15:13:29.038Z,51.45
2019-02-20T15:16:01.081Z,51.43
2019-02-20T15:18:33.061Z,51.60
2019-02-20T15:21:05.107Z,51.78
2019-02-20T15:23:37.142Z,52.21
2019-02-20T15:26:09.892Z,52.40
2019-02-20T15:28:41.920Z,52.49
2019-02-20T15:31:13.959Z,52.58
2019-02-20T15:33:45.984Z,52.77
2019-02-20T15:36:18.012Z,52.62
2019-02-20T15:38:50.087Z,53.06
2019-02-20T15:41:22.097Z,53.44
2019-02-20T15:43:54.158Z,53.55
2019-02-20T15:46:26.191Z,53.70
2019-02-20T15:48:58.226Z,53.69
2019-02-20T15:51:30.513Z,53.60
2019-02-20T15:54:02.511Z,53.69
2019-02-20T15:56:34.514Z,53.76
2019-02-20T15:59:06.512Z,53.83
2019-02-20T16:01:38.708Z,53.92
2019-02-20T16:04:11.083Z,54.07
2019-02-20T16:06:44.432Z,54.23
2019-02-20T16:09:16.580Z,54.28
2019-02-20T16:11:48.604Z,54.39
2019-02-20T16:14:20.591Z,54.49
2019-02-20T16:16:52.949Z,54.77
2019-02-20T16:19:25.043Z,54.88
2019-02-20T16:21:57.053Z,55.09
2019-02-20T16:24:29.056Z,55.28
2019-02-20T16:27:01.114Z,55.35
2019-02-20T16:29:33.450Z,55.60
2019-02-20T16:32:05.548Z,55.85
2019-02-20T16:34:37.591Z,56.01
2019-02-20T16:37:09.632Z,56.17
2019-02-20T16:39:41.693Z,56.41
2019-02-20T16:42:14.021Z,56.77
2019-02-20T16:44:46.081Z,56.94
2019-02-20T16:47:18.130Z,57.20
2019-02-20T16:49:50.156Z,57.58
2019-02-20T16:52:22.192Z,58.01
2019-02-20T16:54:55.112Z,58.10
2019-02-20T16:57:27.196Z,58.74
2019-02-20T16:59:59.171Z,59.24
2019-02-20T17:02:31.215Z,59.71
2019-02-20T17:05:03.578Z,60.09
2019-02-20T17:07:35.957Z,60.78
2019-02-20T17:10:08.672Z,60.92
2019-02-20T17:12:40.716Z,60.92
2019-02-20T17:15:13.098Z,61.38
2019-02-20T17:17:45.944Z,61.76
2019-02-20T17:20:18.191Z,62.08
2019-02-20T17:22:50.310Z,62.60
2019-02-20T17:25:22.473Z,63.25
2019-02-20T17:27:54.507Z,63.37
2019-02-20T17:30:26.696Z,63.59
2019-02-20T17:32:58.753Z,63.81
2019-02-20T17:35:30.768Z,63.98
2019-02-20T17:38:02.796Z,64.30
2019-02-20T17:40:34.832Z,64.48
2019-02-20T17:43:06.962Z,64.73
2019-02-20T17:45:39.026Z,64.95
2019-02-20T17:48:11.056Z,65.00
2019-02-20T17:50:43.084Z,65.30
2019-02-20T17:53:15.088Z,65.67
2019-02-20T17:55:47.133Z,65.91
2019-02-20T17:58:19.213Z,65.91
2019-02-20T18:00:51.273Z,66.21
2019-02-20T18:03:23.331Z,66.40
2019-02-20T18:05:55.425Z,66.45
2019-02-20T18:08:27.453Z,66.60
2019-02-20T18:11:01.453Z,66.81
2019-02-20T18:13:33.463Z,67.03
2019-02-20T18:16:05.527Z,67.40
2019-02-20T18:18:37.573Z,67.53
2019-02-20T18:21:09.682Z,67.70
2019-02-20T18:23:41.724Z,67.94
2019-02-20T18:26:13.884Z,68.43
2019-02-20T18:28:45.896Z,68.50
2019-02-20T18:31:17.972Z,68.74
2019-02-20T18:33:50.027Z,68.72
2019-02-20T18:36:22.151Z,68.85
2019-02-20T18:38:54.198Z,68.93
2019-02-20T18:41:26.268Z,69.11
2019-02-20T18:43:58.286Z,69.21
2019-02-20T18:46:30.343Z,69.45
2019-02-20T18:49:02.348Z,69.70
2019-02-20T18:51:34.509Z,69.80
2019-02-20T18:54:06.556Z,70.15
2019-02-20T18:56:38.603Z,69.96
2019-02-20T18:59:10.677Z,69.99
2019-02-20T19:01:42.724Z,70.43
2019-02-20T19:04:14.801Z,70.61
2019-02-20T19:06:46.848Z,70.79
2019-02-20T19:09:25.313Z,70.81
2019-02-20T19:12:32.430Z,71.44
2019-02-20T19:16:04.205Z,71.56
2019-02-20T19:19:07.751Z,71.71
2019-02-20T19:22:08.295Z,72.16
2019-02-20T19:25:18.161Z,72.09
2019-02-20T19:28:15.557Z,71.80
2019-02-20T19:31:31.656Z,72.09
2019-02-20T19:34:54.947Z,72.39
2019-02-20T19:38:09.411Z,72.27
2019-02-20T19:41:38.181Z,72.51
2019-02-20T19:44:44.945Z,72.83
2019-02-20T19:47:24.754Z,73.88
2019-02-20T19:50:23.339Z,73.90
2019-02-20T19:53:34.325Z,73.76
2019-02-20T19:56:45.331Z,73.58
2019-02-20T19:59:56.344Z,73.50
2019-02-20T20:03:07.263Z,73.25
2019-02-20T20:06:18.221Z,72.98
2019-02-20T20:09:29.221Z,73.08
2019-02-20T20:12:30.397Z,73.24
2019-02-20T20:15:25.983Z,73.66
2019-02-20T20:18:36.946Z,73.98
2019-02-20T20:21:47.933Z,73.92
2019-02-20T20:24:58.978Z,73.12
2019-02-20T20:28:09.957Z,72.65
2019-02-20T20:31:20.909Z,72.67
2019-02-20T20:34:24.951Z,72.65
2019-02-20T20:37:46.929Z,72.87
2019-02-20T20:40:37.488Z,73.21
2019-02-20T20:43:31.026Z,73.57
2019-02-20T20:46:59.326Z,73.94
2019-02-20T20:50:28.057Z,74.09
2019-02-20T20:53:40.879Z,73.95
2019-02-20T20:56:42.790Z,73.74
2019-02-20T20:59:45.388Z,73.95
2019-02-20T21:02:35.445Z,74.39
2019-02-20T21:05:49.052Z,74.36
2019-02-20T21:08:54.659Z,74.32
2019-02-20T21:12:07.426Z,74.23
2019-02-20T21:15:05.876Z,74.27
2019-02-20T21:18:31.777Z,74.39
2019-02-20T21:21:38.627Z,74.55
2019-02-20T21:24:43.804Z,74.53
2019-02-20T21:27:36.601Z,74.74
2019-02-20T21:30:44.111Z,74.45
2019-02-20T21:33:48.488Z,74.99
2019-02-20T21:36:54.555Z,74.78
2019-02-20T21:40:06.918Z,74.60
2019-02-20T21:43:09.396Z,74.17
2019-02-20T21:46:27.095Z,74.47
2019-02-20T21:49:34.617Z,75.23
2019-02-20T21:52:36.529Z,75.46
2019-02-20T21:55:57.223Z,75.59
2019-02-20T21:58:39.302Z,76.03
2019-02-20T22:02:17.677Z,76.21
2019-02-20T22:05:17.390Z,75.96
2019-02-20T22:08:16.568Z,75.94
2019-02-20T22:11:48.397Z,76.04
2019-02-20T22:14:52.631Z,76.45
2019-02-20T22:17:59.392Z,76.52
2019-02-20T22:21:31.051Z,76.36
2019-02-20T22:25:06.312Z,75.81
2019-02-20T22:28:28.914Z,75.27
2019-02-20T22:31:30.435Z,75.44
2019-02-20T22:34:16.927Z,75.79
2019-02-20T22:37:45.114Z,75.91
2019-02-20T22:41:01.245Z,75.82
2019-02-20T22:44:10.147Z,76.06
2019-02-20T22:47:11.253Z,75.86
2019-02-20T22:50:22.422Z,75.35
2019-02-20T22:53:50.172Z,75.58
2019-02-20T22:56:59.094Z,75.55
2019-02-20T23:00:14.155Z,75.74
2019-02-20T23:03:17.352Z,75.55
2019-02-20T23:06:29.549Z,75.81
2019-02-20T23:09:40.509Z,76.17
2019-02-20T23:12:36.115Z,76.52
2019-02-20T23:15:08.101Z,76.33
2019-02-20T23:17:40.137Z,75.95
2019-02-20T23:20:12.153Z,76.07
2019-02-20T23:22:44.188Z,75.89
2019-02-20T23:25:16.182Z,76.15
2019-02-20T23:27:48.166Z,76.27
2019-02-20T23:30:20.155Z,76.30
2019-02-20T23:32:52.165Z,76.29
2019-02-20T23:35:24.109Z,76.50
2019-02-20T23:37:56.224Z,76.81
2019-02-20T23:40:28.222Z,76.84
2019-02-20T23:43:00.274Z,76.93
2019-02-20T23:45:32.254Z,76.86
2019-02-20T23:48:04.256Z,76.50
2019-02-20T23:50:36.270Z,76.38
2019-02-20T23:53:08.308Z,76.71
2019-02-20T23:55:40.295Z,76.42
2019-02-20T23:58:12.280Z,76.50
